Time;durP1;ratioP1;P1;durP2;ratioP2;P2;SDS_P1;SDS_P2;PMS_P1;PMS_P2;Temp;Humidity;BMP_temperature;BMP_pressure;BME280_temperature;BME280_humidity;BME280_pressure;Samples;Min_cycle;Max_cycle;Signal;HPM_P1;HPM_P2
2022/05/29 00:00:51;;;;;;;13.17;7.90;;;;;;;18.80;100.00;98802.53;5034964;28;20190;-83
2022/05/29 00:03:17;;;;;;;15.47;7.73;;;;;;;17.96;100.00;98665.66;5017039;28;20220;-81
2022/05/29 00:05:43;;;;;;;18.90;8.27;;;;;;;18.85;100.00;98780.28;5035469;28;20194;-81
2022/05/29 00:08:13;;;;;;;17.93;8.40;;;;;;;18.87;100.00;98758.06;5035001;28;20170;-82
2022/05/29 00:10:41;;;;;;;19.20;7.83;;;;;;;18.58;100.00;98734.13;5035068;28;20170;-82
2022/05/29 00:13:06;;;;;;;16.07;8.40;;;;;;;18.11;100.00;98675.06;5034593;28;20214;-82
2022/05/29 00:15:32;;;;;;;17.13;7.87;;;;;;;18.50;100.00;98736.69;5034360;28;20188;-82
2022/05/29 00:17:57;;;;;;;18.07;7.90;;;;;;;18.38;100.00;98690.47;5034330;28;20170;-82
2022/05/29 00:20:23;;;;;;;16.97;8.37;;;;;;;18.56;100.00;98692.25;5034367;28;20217;-83
2022/05/29 00:22:48;;;;;;;18.00;8.40;;;;;;;18.97;100.00;98739.28;5034562;28;20169;-82
2022/05/29 00:25:13;;;;;;;16.67;8.63;;;;;;;18.85;100.00;98723.88;5034533;28;20158;-81
2022/05/29 00:27:39;;;;;;;16.37;8.30;;;;;;;19.04;100.00;98746.09;5033968;28;20237;-80
2022/05/29 00:30:08;;;;;;;16.67;8.23;;;;;;;19.00;100.00;98746.09;5034176;28;20161;-79
2022/05/29 00:32:34;;;;;;;18.60;8.70;;;;;;;18.71;100.00;98735.81;5033707;28;20165;-81
2022/05/29 00:34:59;;;;;;;16.10;7.87;;;;;;;18.62;100.00;98717.91;5033649;28;20573;-80
2022/05/29 00:37:25;;;;;;;16.00;7.90;;;;;;;18.37;100.00;98709.28;5033732;28;20166;-80
2022/05/29 00:39:53;;;;;;;16.83;7.90;;;;;;;17.90;100.00;98627.22;5033982;28;20189;-81
2022/05/29 00:42:22;;;;;;;17.77;8.07;;;;;;;18.48;100.00;98723.00;5033780;28;20166;-81
2022/05/29 00:44:49;;;;;;;19.10;8.20;;;;;;;18.53;100.00;98730.69;5033301;28;20205;-84
2022/05/29 00:47:20;;;;;;;18.23;7.57;;;;;;;18.08;100.00;98682.75;5016278;28;20170;-83
2022/05/29 00:49:48;;;;;;;15.13;7.63;;;;;;;18.27;100.00;98705.84;5033827;28;20241;-83
2022/05/29 00:52:27;;;;;;;16.07;7.03;;;;;;;18.39;100.00;98720.41;5034013;28;20158;-84
2022/05/29 00:55:04;;;;;;;15.67;7.20;;;;;;;18.38;100.00;98699.88;5033707;28;20165;-83
2022/05/29 00:57:36;;;;;;;13.67;7.30;;;;;;;17.45;100.00;98527.25;5034171;28;20162;-83
2022/05/29 01:00:14;;;;;;;14.63;7.03;;;;;;;18.28;100.00;98622.16;5019109;28;20630;-84
2022/05/29 01:02:41;;;;;;;15.70;7.50;;;;;;;18.75;100.00;98691.41;5036933;28;20158;-82
2022/05/29 01:05:08;;;;;;;13.33;7.50;;;;;;;18.46;100.00;98677.69;5015766;28;20169;-83
2022/05/29 01:07:35;;;;;;;13.10;7.57;;;;;;;17.94;100.00;98581.97;5033288;28;20580;-83
2022/05/29 01:10:02;;;;;;;13.73;7.67;;;;;;;17.99;100.00;98631.50;5033199;28;20158;-83
2022/05/29 01:12:45;;;;;;;15.10;7.43;;;;;;;18.22;100.00;98678.50;5033033;28;20228;-83
2022/05/29 01:15:19;;;;;;;18.43;7.80;;;;;;;17.43;100.00;98572.44;5033296;28;20682;-85
2022/05/29 01:17:53;;;;;;;17.37;8.00;;;;;;;18.18;100.00;98685.31;5033734;28;20704;-82
2022/05/29 01:21:06;;;;;;;13.90;7.53;;;;;;;17.99;100.00;98696.38;5033262;28;20197;-84
2022/05/29 01:24:14;;;;;;;18.47;7.50;;;;;;;17.88;100.00;98699.78;4937171;29;20191;-82
2022/05/29 01:26:48;;;;;;;17.03;7.97;;;;;;;18.20;100.00;98719.50;4937406;29;20188;-82
2022/05/29 01:29:32;;;;;;;16.87;7.90;;;;;;;18.01;100.00;98710.06;4953609;29;20165;-82
2022/05/29 01:32:06;;;;;;;14.00;7.60;;;;;;;17.43;100.00;98673.09;4952975;29;20169;-80
2022/05/29 01:34:40;;;;;;;21.73;8.00;;;;;;;17.80;100.00;98745.81;4952646;29;20196;-81
2022/05/29 01:37:21;;;;;;;15.80;8.03;;;;;;;18.07;100.00;98771.56;4936581;29;20642;-81
2022/05/29 01:39:55;;;;;;;15.87;7.53;;;;;;;18.19;100.00;98770.72;4952707;29;20184;-83
2022/05/29 01:42:32;;;;;;;15.27;7.40;;;;;;;18.53;100.00;98770.00;4952735;29;20171;-82
2022/05/29 01:45:16;;;;;;;15.17;7.03;;;;;;;18.72;100.00;98765.75;4952603;29;20172;-82
2022/05/29 01:47:44;;;;;;;14.00;8.07;;;;;;;18.60;100.00;98734.97;4952220;29;20197;-82
2022/05/29 01:50:24;;;;;;;17.13;7.77;;;;;;;17.79;100.00;98575.13;4952357;29;20168;-82
2022/05/29 01:52:58;;;;;;;15.70;8.10;;;;;;;18.95;100.00;98801.69;4952561;29;20192;-82
2022/05/29 01:55:28;;;;;;;15.63;7.83;;;;;;;18.55;100.00;98770.88;4959752;28;20176;-80
2022/05/29 01:58:18;;;;;;;16.67;7.40;;;;;;;18.66;100.00;98783.69;4973712;29;20165;-81
2022/05/29 02:00:46;;;;;;;14.73;6.90;;;;;;;18.25;100.00;98687.06;5031290;28;20213;-80
2022/05/29 02:03:16;;;;;;;14.77;6.63;;;;;;;18.00;100.00;98636.63;5031904;28;20166;-83
2022/05/29 02:05:51;;;;;;;15.03;6.47;;;;;;;18.17;100.00;98700.69;5032160;28;20565;-83
2022/05/29 02:08:27;;;;;;;15.40;6.43;;;;;;;18.16;100.00;98684.47;5032427;28;20215;-84
2022/05/29 02:10:59;;;;;;;15.23;6.50;;;;;;;17.68;100.00;98628.03;5014283;28;20181;-83
2022/05/29 02:13:29;;;;;;;14.50;6.00;;;;;;;17.58;100.00;98746.56;5031793;28;20248;-82
2022/05/29 02:16:01;;;;;;;14.97;5.57;;;;;;;17.50;100.00;98791.69;5032294;28;20174;-82
2022/05/29 02:18:50;;;;;;;13.50;6.23;;;;;;;17.40;100.00;98807.84;5031667;28;20158;-83
2022/05/29 02:21:27;;;;;;;14.53;6.20;;;;;;;17.39;100.00;98824.03;5031870;28;20269;-82
2022/05/29 02:23:58;;;;;;;13.57;6.30;;;;;;;17.55;100.00;98802.88;5031683;28;20168;-83
2022/05/29 02:26:29;;;;;;;15.97;7.43;;;;;;;17.26;100.00;98742.94;5031567;28;20171;-83
2022/05/29 02:28:58;;;;;;;17.90;8.83;;;;;;;17.68;100.00;98768.81;5031483;28;20521;-83
2022/05/29 02:31:41;;;;;;;26.33;8.37;;;;;;;17.97;100.00;98754.44;5031636;28;20161;-82
2022/05/29 02:34:17;;;;;;;28.33;15.00;;;;;;;18.03;100.00;98746.78;5031284;28;20158;-82
2022/05/29 02:36:48;;;;;;;20.80;9.33;;;;;;;18.16;100.00;98732.28;5031295;28;20169;-83
2022/05/29 02:39:23;;;;;;;19.67;8.20;;;;;;;18.24;100.00;98725.47;5031559;28;20245;-82
2022/05/29 02:42:07;;;;;;;20.83;8.07;;;;;;;18.13;100.00;98739.97;5032078;28;20731;-82
2022/05/29 02:44:42;;;;;;;17.03;8.37;;;;;;;18.08;100.00;98749.34;5031852;28;20173;-82
2022/05/29 02:47:24;;;;;;;21.17;8.23;;;;;;;18.05;100.00;98770.69;5032222;28;20154;-81
2022/05/29 02:49:58;;;;;;;17.77;8.40;;;;;;;17.97;100.00;98769.78;5031484;28;20159;-82
2022/05/29 02:52:24;;;;;;;19.63;8.40;;;;;;;17.78;100.00;98770.56;5031301;28;20235;-81
2022/05/29 02:54:49;;;;;;;17.87;8.03;;;;;;;17.79;100.00;98779.97;5031729;28;20582;-82
2022/05/29 02:57:15;;;;;;;21.00;8.13;;;;;;;17.58;100.00;98772.16;5030973;28;20162;-80
2022/05/29 02:59:46;;;;;;;13.70;6.90;;;;;;;17.77;100.00;98821.78;5031069;28;20565;-81
2022/05/29 03:02:20;;;;;;;16.87;7.07;;;;;;;17.33;100.00;98777.97;5031085;28;20190;-82
2022/05/29 03:05:05;;;;;;;14.47;6.50;;;;;;;17.49;100.00;98785.75;5030831;28;20193;-82
2022/05/29 03:07:50;;;;;;;13.50;6.53;;;;;;;17.67;100.00;98762.84;5031943;28;20629;-82
2022/05/29 03:10:20;;;;;;;15.83;6.80;;;;;;;18.06;100.00;98800.59;5035473;28;20568;-84
2022/05/29 03:13:13;;;;;;;13.87;7.10;;;;;;;17.87;100.00;98751.84;5018176;28;20233;-85
2022/05/29 03:16:00;;;;;;;15.37;6.70;;;;;;;18.42;100.00;98804.13;5035185;28;20193;-82
2022/05/29 03:18:38;;;;;;;17.77;6.70;;;;;;;18.38;100.00;98797.25;5034871;28;20173;-84
2022/05/29 03:21:10;;;;;;;13.67;6.97;;;;;;;16.76;100.00;98502.25;5034923;28;20568;-85
2022/05/29 03:23:53;;;;;;;17.63;7.07;;;;;;;18.05;100.00;98716.88;5035175;28;20162;-85
2022/05/29 03:26:40;;;;;;;12.93;6.70;;;;;;;18.40;100.00;98769.94;5035142;28;20253;-85
2022/05/29 03:29:14;;;;;;;14.90;7.23;;;;;;;17.96;100.00;98691.28;5017204;28;20292;-84
2022/05/29 03:31:42;;;;;;;16.37;7.63;;;;;;;18.31;100.00;98728.91;5034972;28;20162;-81
2022/05/29 03:34:09;;;;;;;17.67;7.37;;;;;;;18.48;100.00;98740.97;5034790;28;20166;-80
2022/05/29 03:36:35;;;;;;;15.93;7.70;;;;;;;18.09;100.00;98640.91;5034980;28;20288;-80
2022/05/29 03:39:00;;;;;;;16.77;7.87;;;;;;;18.31;100.00;98669.97;5034933;28;20634;-81
2022/05/29 03:41:39;;;;;;;16.03;7.27;;;;;;;18.41;100.00;98681.94;5034386;28;20670;-81
2022/05/29 03:44:05;;;;;;;15.33;7.43;;;;;;;18.61;100.00;98718.75;5016725;28;20184;-81
2022/05/29 03:46:31;;;;;;;14.47;7.83;;;;;;;18.41;100.00;98700.75;5034360;28;20514;-81
2022/05/29 03:48:56;;;;;;;16.60;8.30;;;;;;;18.75;100.00;98719.59;5034610;28;20173;-81
2022/05/29 03:51:22;;;;;;;16.47;7.90;;;;;;;18.62;100.00;98654.63;5034622;28;20162;-81
2022/05/29 03:53:47;;;;;;;16.07;7.87;;;;;;;18.75;100.00;98674.31;5034131;28;20181;-81
2022/05/29 03:56:12;;;;;;;17.90;8.60;;;;;;;18.87;100.00;98664.91;5034257;28;20601;-81
2022/05/29 03:58:38;;;;;;;15.40;8.33;;;;;;;18.77;100.00;98656.34;5034354;28;20170;-81
2022/05/29 04:01:03;;;;;;;17.23;8.97;;;;;;;17.71;100.00;98464.19;5034010;28;20194;-83
2022/05/29 04:03:28;;;;;;;14.27;8.30;;;;;;;17.61;100.00;98437.72;5034082;28;20257;-84
2022/05/29 04:05:54;;;;;;;20.50;8.13;;;;;;;17.14;100.00;98357.50;5034285;28;20577;-83
2022/05/29 04:13:49;;;;;;;14.47;7.37;;;;;;;19.11;100.00;98670.84;5034219;28;20228;-81
2022/05/29 04:16:15;;;;;;;16.23;7.83;;;;;;;19.25;100.00;98692.19;5018224;28;20193;-82
2022/05/29 04:18:41;;;;;;;15.27;8.77;;;;;;;19.23;100.00;98688.75;5052525;28;20226;-82
2022/05/29 04:21:07;;;;;;;19.70;8.87;;;;;;;19.21;100.00;98695.63;5039167;28;20607;-82
2022/05/29 04:23:33;;;;;;;20.60;8.77;;;;;;;19.07;100.00;98661.44;5036595;28;20218;-81
2022/05/29 04:25:58;;;;;;;16.47;8.87;;;;;;;18.57;100.00;98581.19;5036247;28;20735;-84
2022/05/29 04:28:24;;;;;;;15.10;8.93;;;;;;;18.79;100.00;98611.88;5019021;28;20264;-82
2022/05/29 04:30:50;;;;;;;17.00;9.93;;;;;;;18.43;100.00;98572.59;5034922;28;20539;-83
2022/05/29 04:33:15;;;;;;;19.13;10.73;;;;;;;19.35;100.00;98708.41;5033479;28;20196;-83
2022/05/29 04:35:43;;;;;;;20.13;10.47;;;;;;;19.56;100.00;98738.38;5033487;28;20174;-82
2022/05/29 04:38:10;;;;;;;17.27;10.27;;;;;;;19.36;100.00;98658.81;5033431;28;20197;-83
2022/05/29 04:40:38;;;;;;;18.43;10.40;;;;;;;19.62;100.00;98686.97;5033287;28;20200;-83
2022/05/29 04:43:04;;;;;;;16.93;10.40;;;;;;;18.24;100.00;98406.06;5033257;28;20169;-82
2022/05/29 04:45:29;;;;;;;18.63;10.27;;;;;;;18.78;100.00;98478.56;5033694;28;20617;-82
2022/05/29 04:47:54;;;;;;;17.80;9.90;;;;;;;19.48;100.00;98573.19;5033485;28;20170;-83
2022/05/29 04:50:20;;;;;;;19.20;9.50;;;;;;;20.26;100.00;98683.25;5033290;28;20726;-81
2022/05/29 04:52:46;;;;;;;19.80;10.10;;;;;;;20.36;100.00;98661.75;5033402;28;20170;-81
2022/05/29 04:55:12;;;;;;;16.50;8.90;;;;;;;20.78;100.00;98721.44;5033166;28;20177;-81
2022/05/29 04:57:37;;;;;;;16.20;9.17;;;;;;;19.85;100.00;98579.84;5033202;28;20165;-82
2022/05/29 05:00:04;;;;;;;18.13;9.80;;;;;;;20.71;100.00;98735.22;5032938;28;20194;-82
2022/05/29 05:02:30;;;;;;;13.60;8.47;;;;;;;20.74;100.00;98733.47;5033460;28;20638;-82
2022/05/29 05:04:55;;;;;;;18.30;9.60;;;;;;;20.51;100.00;98653.94;5032996;28;20171;-81
2022/05/29 05:07:20;;;;;;;19.77;9.53;;;;;;;20.49;100.00;98637.63;5015588;28;20272;-82
2022/05/29 05:09:46;;;;;;;18.40;8.77;;;;;;;20.37;100.00;98618.91;5032906;28;20158;-82
2022/05/29 05:12:12;;;;;;;20.43;9.53;;;;;;;20.05;100.00;98598.56;5032695;28;20710;-83
2022/05/29 05:14:37;;;;;;;19.10;9.27;;;;;;;21.01;100.00;98748.69;5033121;28;20170;-82
2022/05/29 05:17:03;;;;;;;16.97;9.40;;;;;;;20.96;100.00;98729.84;5033530;28;20163;-81
2022/05/29 05:19:28;;;;;;;18.27;8.43;;;;;;;20.76;100.00;98733.47;5015556;28;20208;-80
2022/05/29 05:21:54;;;;;;;17.17;9.07;;;;;;;20.95;100.00;98719.59;5033401;28;20193;-81
2022/05/29 05:24:19;;;;;;;15.30;8.77;;;;;;;21.43;100.00;98749.19;5032914;28;20181;-82
2022/05/29 05:26:45;;;;;;;16.37;8.43;;;;;;;21.05;100.00;98644.00;5032738;28;20174;-82
2022/05/29 05:29:11;;;;;;;16.10;8.10;;;;;;;21.08;100.00;98664.59;5032484;28;20150;-82
2022/05/29 05:31:37;;;;;;;17.40;7.90;;;;;;;20.18;100.00;98509.34;5032586;28;20161;-81
2022/05/29 05:34:02;;;;;;;14.47;7.90;;;;;;;21.26;100.00;98725.34;5032473;28;20154;-82
2022/05/29 05:36:28;;;;;;;16.07;8.70;;;;;;;20.95;100.00;98627.81;5032849;28;20241;-81
2022/05/29 05:38:53;;;;;;;17.40;7.83;;;;;;;21.70;100.00;98738.59;5032596;28;20217;-81
2022/05/29 05:41:19;;;;;;;14.00;7.20;;;;;;;21.14;100.00;98661.94;5032479;28;20677;-81
2022/05/29 05:43:46;;;;;;;14.57;7.33;;;;;;;20.51;100.00;98556.22;5032733;28;20216;-82
2022/05/29 05:46:13;;;;;;;15.97;7.50;;;;;;;20.77;100.00;98589.38;5033002;28;20208;-84
2022/05/29 05:48:39;;;;;;;13.93;7.20;;;;;;;22.07;100.00;98751.94;5015079;28;20658;-82
2022/05/29 05:51:09;;;;;;;15.97;6.93;;;;;;;21.91;100.00;98704.88;5015386;28;20176;-82
2022/05/29 05:53:37;;;;;;;14.50;7.50;;;;;;;22.15;100.00;98753.53;5032538;28;20158;-83
2022/05/29 05:56:11;;;;;;;14.93;7.13;;;;;;;22.01;100.00;98718.47;5033137;28;20208;-82
2022/05/29 05:58:38;;;;;;;14.60;7.20;;;;;;;21.56;100.00;98637.44;5032263;28;20181;-83
2022/05/29 06:01:06;;;;;;;14.53;6.70;;;;;;;22.49;100.00;98758.25;5032503;28;20182;-82
2022/05/29 06:03:32;;;;;;;15.07;7.40;;;;;;;20.39;100.00;98403.78;5032239;28;20627;-83
2022/05/29 06:05:58;;;;;;;14.87;7.53;;;;;;;21.22;100.00;98513.41;5033148;28;20165;-82
2022/05/29 06:08:24;;;;;;;13.17;7.43;;;;;;;21.58;100.00;98672.63;5037325;28;20150;-84
2022/05/29 06:10:49;;;;;;;17.83;7.67;;;;;;;20.48;100.00;98460.25;5043531;28;20150;-87
2022/05/29 06:13:15;;;;;;;13.93;7.73;;;;;;;20.41;100.00;98505.72;5018326;28;20572;-86
2022/05/29 06:15:44;;;;;;;16.67;7.70;;;;;;;20.19;100.00;98518.78;5015653;28;20187;-86
2022/05/29 06:18:10;;;;;;;13.47;7.90;;;;;;;19.46;100.00;98338.75;5014477;28;20220;-86
2022/05/29 06:20:35;;;;;;;15.83;8.20;;;;;;;20.94;100.00;98566.91;5032997;28;20186;-86
2022/05/29 06:23:01;;;;;;;16.23;8.37;;;;;;;20.51;100.00;98476.50;5014453;28;20622;-83
2022/05/29 06:25:26;;;;;;;18.13;7.57;;;;;;;20.11;100.00;98421.16;5031892;28;20240;-82
2022/05/29 06:27:52;;;;;;;15.93;7.80;;;;;;;19.64;100.00;98328.34;5031729;28;20597;-83
2022/05/29 06:30:17;;;;;;;16.80;7.97;;;;;;;20.27;100.00;98424.50;5031446;28;20162;-82
2022/05/29 06:32:43;;;;;;;16.43;7.83;;;;;;;21.02;100.00;98513.63;5014074;28;20184;-83
2022/05/29 06:35:11;;;;;;;18.00;7.97;;;;;;;22.62;100.00;98719.34;5031554;28;20573;-82
2022/05/29 06:37:37;;;;;;;17.93;7.80;;;;;;;22.31;100.00;98657.03;5034867;28;20245;-82
2022/05/29 06:40:04;;;;;;;18.03;7.93;;;;;;;21.85;100.00;98558.03;5049671;28;20166;-81
2022/05/29 06:42:29;;;;;;;17.07;8.03;;;;;;;22.84;100.00;98720.72;5034207;28;20219;-83
2022/05/29 06:44:55;;;;;;;16.57;8.13;;;;;;;22.60;100.00;98739.16;5034273;28;20242;-83
2022/05/29 06:47:21;;;;;;;20.60;8.03;;;;;;;21.89;100.00;98685.16;5033089;28;20190;-83
2022/05/29 06:49:48;;;;;;;20.67;7.83;;;;;;;21.69;100.00;98575.44;5032390;28;20623;-83
2022/05/29 06:52:15;;;;;;;17.17;10.60;;;;;;;23.21;100.00;98751.94;5031968;28;20154;-82
2022/05/29 06:54:40;;;;;;;20.23;9.07;;;;;;;22.86;100.00;98681.97;5032028;28;20165;-83
2022/05/29 06:57:07;;;;;;;17.97;8.13;;;;;;;23.48;100.00;98751.50;5032266;28;20162;-82
2022/05/29 07:08:01;;;;;;;15.07;7.13;;;;;;;23.74;100.00;98745.81;5031501;28;20196;-82
2022/05/29 07:10:29;;;;;;;14.40;6.60;;;;;;;23.72;100.00;98729.50;5031225;28;20211;-82
2022/05/29 07:12:56;;;;;;;14.47;7.00;;;;;;;24.06;100.00;98750.34;5030964;28;20221;-82
2022/05/29 07:15:22;;;;;;;17.83;7.90;;;;;;;23.83;100.00;98761.16;5031146;28;20163;-82
2022/05/29 07:17:47;;;;;;;17.33;7.60;;;;;;;23.90;100.00;98738.59;5031206;28;20543;-82
2022/05/29 07:20:12;;;;;;;15.63;7.77;;;;;;;24.19;100.00;98758.72;5030707;28;20554;-86
2022/05/29 07:22:44;;;;;;;15.17;8.03;;;;;;;23.99;100.00;98746.19;5014793;28;20187;-84
2022/05/29 07:25:11;;;;;;;14.03;7.70;;;;;;;23.81;100.00;98742.25;4993790;28;20197;-81
2022/05/29 07:27:38;;;;;;;12.63;7.63;;;;;;;23.45;100.00;98737.78;5011141;28;20171;-81
2022/05/29 07:30:04;;;;;;;18.50;8.23;;;;;;;23.67;100.00;98736.50;5015278;28;20221;-82
2022/05/29 07:32:30;;;;;;;17.20;7.63;;;;;;;23.30;100.00;98684.63;5010888;28;20179;-81
2022/05/29 07:34:57;;;;;;;17.57;7.73;;;;;;;23.24;100.00;98611.59;5012187;28;20175;-82
2022/05/29 07:37:23;;;;;;;14.17;7.50;;;;;;;23.90;100.00;98630.00;5012382;28;20167;-83
2022/05/29 07:39:52;;;;;;;17.50;7.70;;;;;;;24.46;100.00;98699.47;5011276;28;20163;-84
2022/05/29 07:45:05;;;;;;;15.63;7.90;;;;;;;24.27;100.00;98715.44;4971508;28;20627;-82
2022/05/29 07:47:36;;;;;;;16.33;8.03;;;;;;;24.41;100.00;98706.50;5027952;28;20190;-82
2022/05/29 07:50:02;;;;;;;15.50;7.50;;;;;;;24.72;100.00;98716.97;5018224;28;20572;-83
2022/05/29 07:52:28;;;;;;;15.70;7.80;;;;;;;24.73;100.00;98716.06;5004914;28;20190;-82
2022/05/29 07:54:53;;;;;;;14.03;6.93;;;;;;;24.68;100.00;98679.09;5009046;28;20190;-83
2022/05/29 07:57:19;;;;;;;16.03;7.43;;;;;;;25.20;100.00;98705.41;5013922;28;20221;-83
2022/05/29 07:59:45;;;;;;;15.87;8.20;;;;;;;25.01;100.00;98635.97;5010747;28;20189;-82
2022/05/29 08:02:10;;;;;;;16.13;7.80;;;;;;;25.67;100.00;98654.03;5025797;28;20861;-82
2022/05/29 08:04:37;;;;;;;14.10;7.53;;;;;;;25.46;100.00;98707.31;5013222;28;21218;-82
2022/05/29 08:07:03;;;;;;;13.33;7.40;;;;;;;24.95;100.00;98665.47;5019633;28;20612;-83
2022/05/29 08:09:38;;;;;;;17.83;7.87;;;;;;;24.32;100.00;98639.41;5020241;28;20190;-85
2022/05/29 08:12:04;;;;;;;14.73;7.53;;;;;;;21.37;100.00;98105.53;4982572;28;20900;-84
2022/05/29 08:14:31;;;;;;;14.87;8.13;;;;;;;21.44;100.00;98074.47;5012084;28;20245;-83
2022/05/29 08:16:57;;;;;;;12.13;7.57;;;;;;;25.13;100.00;98696.06;4989676;28;20264;-82
2022/05/29 08:19:23;;;;;;;15.67;7.90;;;;;;;25.58;100.00;98707.00;4989069;28;20335;-82
2022/05/29 08:21:49;;;;;;;14.03;7.87;;;;;;;24.78;100.00;98597.69;4989900;28;20207;-82
2022/05/29 08:32:26;;;;;;;15.00;7.57;;;;;;;25.51;100.00;98671.78;4990222;28;20237;-82
2022/05/29 08:34:52;;;;;;;20.43;8.27;;;;;;;25.67;100.00;98675.63;5004507;28;20186;-85
2022/05/29 08:37:18;;;;;;;13.83;7.37;;;;;;;24.72;100.00;98499.50;5009896;28;20182;-83
2022/05/29 08:39:44;;;;;;;14.68;8.02;;;;;;;25.95;100.00;98669.63;5012139;28;20302;-82
2022/05/29 08:42:16;;;;;;;13.60;7.37;;;;;;;26.06;100.00;98681.41;5006229;28;20859;-83
2022/05/29 08:44:47;;;;;;;18.73;7.75;;;;;;;25.24;100.00;98471.22;4990399;28;20237;-83
2022/05/29 08:47:14;;;;;;;14.15;8.00;;;;;;;25.94;100.00;98559.84;4993712;28;20200;-82
2022/05/29 08:49:46;;;;;;;12.68;7.63;;;;;;;26.71;100.00;98676.75;4990426;28;20190;-82
2022/05/29 08:52:14;;;;;;;17.88;7.75;;;;;;;26.73;100.00;98676.69;4991948;28;20273;-83
2022/05/29 08:54:49;;;;;;;16.63;7.43;;;;;;;25.35;100.00;98555.59;5009566;28;20192;-84
2022/05/29 08:57:53;;;;;;;12.88;7.13;;;;;;;24.93;100.00;98426.44;5013287;28;20185;-84
2022/05/29 09:00:48;;;;;;;15.02;7.10;;;;;;;26.85;100.00;98671.13;5021081;28;20197;-82
2022/05/29 09:03:29;;;;;;;15.82;7.10;;;;;;;25.29;100.00;98488.41;5019332;28;20196;-83
2022/05/29 09:06:06;;;;;;;13.88;6.40;;;;;;;26.70;100.00;98663.84;5012995;28;20788;-81
2022/05/29 09:08:41;;;;;;;13.18;6.10;;;;;;;27.39;100.00;98663.19;5011466;28;20306;-84
2022/05/29 09:11:16;;;;;;;11.17;5.73;;;;;;;27.13;70.83;98586.16;4971817;28;1112664;-83
2022/05/29 09:14:03;;;;;;;12.93;5.60;;;;;;;27.49;72.63;98649.00;4993348;28;20694;-84
2022/05/29 09:16:43;;;;;;;13.98;5.90;;;;;;;26.95;72.67;98521.81;5025218;28;20188;-83
2022/05/29 09:19:41;;;;;;;15.15;5.60;;;;;;;27.74;71.38;98634.19;5013500;28;20684;-83
2022/05/29 09:22:12;;;;;;;11.02;5.25;;;;;;;27.23;70.04;98636.03;4969717;28;20227;-84
2022/05/29 09:24:53;;;;;;;11.45;5.65;;;;;;;24.67;72.02;98258.03;4969946;28;20237;-82
2022/05/29 09:27:20;;;;;;;8.82;4.60;;;;;;;27.07;71.07;98625.34;4971578;28;21031;-82
2022/05/29 09:29:45;;;;;;;11.45;5.30;;;;;;;26.49;72.37;98532.97;4973345;28;20244;-84
2022/05/29 09:32:16;;;;;;;13.30;5.40;;;;;;;26.77;73.32;98601.25;4972786;28;20228;-84
2022/05/29 09:34:47;;;;;;;11.52;5.43;;;;;;;24.58;71.62;98222.91;4973159;28;20209;-83
2022/05/29 09:37:33;;;;;;;10.40;5.18;;;;;;;26.76;69.32;98479.19;4973527;28;21009;-82
2022/05/29 09:40:00;;;;;;;12.50;5.40;;;;;;;27.91;68.85;98625.69;4952166;28;20323;-83
2022/05/29 09:42:34;;;;;;;13.25;5.40;;;;;;;27.67;66.93;98507.84;4950866;29;20224;-83
2022/05/29 09:45:15;;;;;;;11.68;5.30;;;;;;;28.36;67.45;98629.16;4939112;28;20744;-83
2022/05/29 09:50:57;;;;;;;9.93;5.45;;;;;;;28.38;67.78;98603.88;4950229;29;20243;-83
2022/05/29 09:53:28;;;;;;;13.77;6.13;;;;;;;27.70;70.62;98603.97;4952384;29;20203;-86
2022/05/29 09:56:08;;;;;;;12.60;6.07;;;;;;;27.86;70.61;98597.28;4958470;28;20189;-84
2022/05/29 09:58:50;;;;;;;12.55;6.45;;;;;;;27.67;70.69;98579.81;4992012;28;20211;-84
2022/05/29 10:01:38;;;;;;;15.65;6.80;;;;;;;27.52;71.56;98578.66;5034320;28;20197;-83
2022/05/29 10:04:08;;;;;;;12.73;6.45;;;;;;;27.02;70.62;98450.56;5033519;28;20162;-85
2022/05/29 10:06:41;;;;;;;15.57;6.50;;;;;;;27.93;69.91;98561.47;5016372;28;20591;-83
2022/05/29 10:09:16;;;;;;;13.85;6.68;;;;;;;28.29;70.25;98557.41;5033201;28;20167;-83
2022/05/29 10:11:45;;;;;;;16.10;6.65;;;;;;;28.25;69.62;98557.59;5032430;28;20220;-83
2022/05/29 10:14:43;;;;;;;13.65;7.00;;;;;;;28.13;70.92;98550.28;5032874;28;20625;-83
2022/05/29 10:17:13;;;;;;;13.20;6.32;;;;;;;27.35;70.99;98409.44;4971227;28;20192;-84
2022/05/29 10:19:41;;;;;;;15.40;6.93;;;;;;;28.05;70.39;98547.97;4973896;28;20179;-83
2022/05/29 10:22:39;;;;;;;15.93;7.30;;;;;;;28.14;70.26;98545.00;4974256;28;20263;-84
2022/05/29 10:25:16;;;;;;;14.13;6.50;;;;;;;27.48;68.99;98397.66;4914962;29;20194;-83
2022/05/29 10:27:47;;;;;;;13.25;6.75;;;;;;;28.35;69.70;98528.50;4915181;29;20199;-82
2022/05/29 10:30:31;;;;;;;13.65;6.90;;;;;;;28.58;68.37;98524.91;4914016;29;20196;-84
2022/05/29 10:33:09;;;;;;;13.40;7.10;;;;;;;28.47;68.70;98512.38;4914726;29;20175;-83
2022/05/29 10:35:38;;;;;;;17.48;7.10;;;;;;;28.29;69.45;98502.75;4915436;29;20205;-83
2022/05/29 10:38:14;;;;;;;17.92;7.13;;;;;;;28.35;69.32;98502.47;4915346;29;20606;-82
2022/05/29 10:40:42;;;;;;;15.27;7.43;;;;;;;28.26;69.60;98475.97;4915008;29;20216;-81
2022/05/29 10:43:08;;;;;;;16.42;7.00;;;;;;;28.11;69.98;98485.25;4898486;29;20201;-82
2022/05/29 10:45:44;;;;;;;16.70;7.57;;;;;;;28.19;70.69;98475.38;4914618;29;20187;-83
2022/05/29 10:48:31;;;;;;;25.08;8.20;;;;;;;28.63;71.14;98473.50;4913840;29;20704;-83
2022/05/29 10:50:59;;;;;;;14.48;7.32;;;;;;;28.01;71.38;98463.13;4914825;29;20179;-84
2022/05/29 10:53:43;;;;;;;14.15;7.40;;;;;;;28.01;72.42;98452.69;4924407;29;20196;-84
2022/05/29 10:56:55;;;;;;;13.48;7.40;;;;;;;27.55;71.78;98361.88;4934154;29;20200;-85
2022/05/29 10:59:42;;;;;;;16.52;7.55;;;;;;;27.94;71.81;98443.44;4917392;29;20181;-86
2022/05/29 11:05:32;;;;;;;19.23;7.65;;;;;;;28.33;70.71;98440.94;5034066;28;20167;-85
2022/05/29 11:08:21;;;;;;;14.70;7.47;;;;;;;28.23;71.90;98437.91;5035014;28;20611;-84
2022/05/29 11:10:59;;;;;;;14.40;7.40;;;;;;;28.36;70.44;98425.19;5038169;28;20162;-84
2022/05/29 11:13:41;;;;;;;18.80;7.50;;;;;;;28.47;69.64;98423.81;5036042;28;20288;-85
2022/05/29 11:16:20;;;;;;;16.25;7.70;;;;;;;28.14;69.09;98339.38;5033075;28;20166;-84
2022/05/29 11:19:05;;;;;;;16.90;7.55;;;;;;;28.91;69.07;98415.78;5042559;28;20177;-86
2022/05/29 11:21:50;;;;;;;12.25;7.13;;;;;;;28.54;68.15;98417.41;5051724;28;20220;-84
2022/05/29 11:24:45;;;;;;;16.90;7.60;;;;;;;28.81;68.76;98407.56;5042916;28;20164;-85
2022/05/29 11:27:51;;;;;;;16.50;8.38;;;;;;;28.83;67.61;98342.34;5033795;28;20165;-85
2022/05/29 11:30:54;;;;;;;14.63;6.85;;;;;;;29.38;67.13;98397.94;5037112;28;20162;-86
2022/05/29 11:33:45;;;;;;;13.52;7.13;;;;;;;30.09;66.38;98402.25;5036500;28;20181;-85
2022/05/29 11:36:36;;;;;;;12.80;7.15;;;;;;;30.60;63.21;98404.78;5035873;28;20197;-85
2022/05/29 11:39:31;;;;;;;16.13;7.03;;;;;;;30.92;62.13;98398.72;5018873;28;20688;-86
2022/05/29 11:42:34;;;;;;;15.35;7.15;;;;;;;30.80;61.55;98401.94;5036630;28;20178;-85
2022/05/29 11:45:08;;;;;;;13.30;7.00;;;;;;;30.72;59.82;98296.97;5022287;28;20685;-87
2022/05/29 11:51:08;;;;;;;16.55;7.22;;;;;;;31.51;58.50;98361.38;4978713;28;20747;-85
2022/05/29 11:53:52;;;;;;;15.00;7.22;;;;;;;32.17;58.17;98349.69;4977171;28;20164;-86
2022/05/29 11:56:25;;;;;;;14.20;7.65;;;;;;;32.31;57.35;98311.22;4975809;28;20572;-85
2022/05/29 11:59:08;;;;;;;15.73;7.10;;;;;;;32.00;56.91;98224.97;4977854;28;20168;-85
2022/05/29 12:01:40;;;;;;;15.25;6.90;;;;;;;32.38;56.24;98309.06;4978329;28;20216;-85
2022/05/29 12:04:25;;;;;;;16.33;7.60;;;;;;;31.37;57.54;98144.16;4977140;28;20179;-84
2022/05/29 12:07:13;;;;;;;14.10;7.43;;;;;;;33.29;56.05;98346.09;4958822;28;20207;-85
2022/05/29 12:10:04;;;;;;;12.20;7.03;;;;;;;32.62;55.74;98213.19;4917594;29;20252;-85
2022/05/29 12:12:47;;;;;;;13.30;6.93;;;;;;;32.91;56.51;98324.91;4917850;29;20230;-84
2022/05/29 12:15:18;;;;;;;16.67;6.90;;;;;;;32.17;56.34;98184.66;4901064;29;20685;-84
2022/05/29 12:17:48;;;;;;;13.63;6.78;;;;;;;32.62;55.30;98214.03;4917279;29;20655;-85